createdAt,value
2023-09-24T00:01:00.429Z,98073.41
2023-09-24T00:02:05.441Z,98067.75
2023-09-24T00:03:08.795Z,98065.00
2023-09-24T00:04:12.275Z,98066.41
2023-09-24T00:05:16.317Z,98058.03
2023-09-24T00:06:19.473Z,98058.03
2023-09-24T00:07:22.662Z,98055.97
2023-09-24T00:08:25.913Z,98056.69
2023-09-24T00:09:28.714Z,98052.50
2023-09-24T00:10:32.099Z,98049.75
2023-09-24T00:11:34.947Z,98057.41
2023-09-24T00:12:38.629Z,98060.88
2023-09-24T00:13:41.834Z,98059.59
2023-09-24T00:14:44.672Z,98058.13
2023-09-24T00:15:48.165Z,98064.41
2023-09-24T00:16:51.200Z,98065.81
2023-09-24T00:17:54.419Z,98064.59
2023-09-24T00:18:57.617Z,98059.91
2023-09-24T00:20:00.855Z,98063.88
2023-09-24T00:21:05.093Z,98051.28
2023-09-24T00:22:08.324Z,98044.31
2023-09-24T00:23:16.349Z,98040.31
2023-09-24T00:24:19.657Z,98036.13
2023-09-24T00:25:23.061Z,98049.94
2023-09-24T00:26:28.738Z,98047.19
2023-09-24T00:27:31.608Z,98047.06
2023-09-24T00:28:34.796Z,98052.50
2023-09-24T00:29:38.016Z,98058.75
2023-09-24T00:30:43.948Z,98061.50
2023-09-24T00:31:47.311Z,98064.28
2023-09-24T00:32:50.397Z,98060.88
2023-09-24T00:33:54.500Z,98067.88
2023-09-24T00:34:57.842Z,98061.62
2023-09-24T00:36:01.126Z,98070.66
2023-09-24T00:37:03.933Z,98063.66
2023-09-24T00:38:09.231Z,98058.25
2023-09-24T00:39:15.132Z,98066.63
2023-09-24T00:40:18.346Z,98068.06
2023-09-24T00:41:21.540Z,98064.00
2023-09-24T00:42:28.700Z,98073.00
2023-09-24T00:43:34.413Z,98079.25
2023-09-24T00:44:38.201Z,98086.84
2023-09-24T00:45:44.302Z,98088.75
2023-09-24T00:46:47.912Z,98088.66
2023-09-24T00:47:51.829Z,98083.13
2023-09-24T00:48:58.055Z,98092.16
2023-09-24T00:50:01.168Z,98086.63
2023-09-24T00:51:13.327Z,98086.72
2023-09-24T00:52:16.824Z,98088.03
2023-09-24T00:53:20.208Z,98088.66
2023-09-24T00:54:23.286Z,98095.72
2023-09-24T00:55:27.872Z,98096.66
2023-09-24T00:56:31.346Z,98097.59
2023-09-24T00:57:35.243Z,98089.38
2023-09-24T00:58:40.480Z,98086.13
2023-09-24T00:59:47.545Z,98082.84
2023-09-24T01:00:54.184Z,98075.88
2023-09-24T01:01:58.742Z,98079.78
2023-09-24T01:03:02.447Z,98081.00
2023-09-24T01:04:07.498Z,98082.94
2023-09-24T01:05:12.154Z,98083.53
2023-09-24T01:06:16.216Z,98080.69
2023-09-24T01:07:19.027Z,98077.19
2023-09-24T01:08:24.151Z,98075.06
2023-09-24T01:09:27.563Z,98078.41
2023-09-24T01:10:30.584Z,98073.50
2023-09-24T01:11:34.564Z,98077.69
2023-09-24T01:12:40.817Z,98077.06
2023-09-24T01:13:46.895Z,98076.28
2023-09-24T01:14:50.870Z,98076.88
2023-09-24T01:15:54.128Z,98074.84
2023-09-24T01:16:57.242Z,98070.66
2023-09-24T01:18:03.574Z,98060.88
2023-09-24T01:19:06.992Z,98061.62
2023-09-24T01:20:15.011Z,98056.09
2023-09-24T01:21:19.447Z,98060.78
2023-09-24T01:22:23.304Z,98057.31
2023-09-24T01:23:26.877Z,98057.31
2023-09-24T01:24:32.371Z,98062.84
2023-09-24T01:25:37.332Z,98062.12
2023-09-24T01:26:40.758Z,98060.88
2023-09-24T01:27:43.818Z,98063.06
2023-09-24T01:28:48.865Z,98064.41
2023-09-24T01:29:54.901Z,98060.19
2023-09-24T01:30:59.299Z,98058.13
2023-09-24T01:32:02.411Z,98061.62
2023-09-24T01:33:06.892Z,98065.22
2023-09-24T01:34:11.943Z,98066.13
2023-09-24T01:35:16.780Z,98066.22
2023-09-24T01:36:21.535Z,98074.44
2023-09-24T01:37:25.062Z,98076.50
2023-09-24T01:38:27.967Z,98076.50
2023-09-24T01:39:33.657Z,98083.44
2023-09-24T01:40:40.138Z,98078.00
2023-09-24T01:41:43.572Z,98084.88
2023-09-24T01:42:47.827Z,98095.84
2023-09-24T01:43:51.388Z,98082.22
2023-09-24T01:44:54.537Z,98091.25
2023-09-24T01:45:57.840Z,98080.50
2023-09-24T01:47:02.611Z,98076.19
2023-09-24T01:48:06.244Z,98078.75
2023-09-24T01:49:11.833Z,98066.13
2023-09-24T01:50:15.798Z,98067.16
2023-09-24T01:51:21.701Z,98071.50
2023-09-24T01:52:24.614Z,98062.69
2023-09-24T01:53:28.025Z,98071.88
2023-09-24T01:54:31.822Z,98074.75
2023-09-24T01:55:34.862Z,98078.00
2023-09-24T01:56:38.177Z,98082.22
2023-09-24T01:57:45.239Z,98079.66
2023-09-24T01:58:48.206Z,98079.56
2023-09-24T01:59:51.464Z,98081.31
2023-09-24T02:00:54.748Z,98081.19
2023-09-24T02:01:58.303Z,98082.03
2023-09-24T02:03:08.243Z,98083.75
2023-09-24T02:04:11.568Z,98086.94
2023-09-24T02:05:15.160Z,98082.22
2023-09-24T02:06:19.538Z,98070.34
2023-09-24T02:07:22.893Z,98075.06
2023-09-24T02:08:26.506Z,98069.53
2023-09-24T02:09:29.854Z,98065.03
2023-09-24T02:10:35.126Z,98068.19
2023-09-24T02:11:38.306Z,98066.22
2023-09-24T02:12:41.159Z,98064.50
2023-09-24T02:13:44.381Z,98074.72
2023-09-24T02:14:47.711Z,98075.25
2023-09-24T02:15:50.761Z,98075.88
2023-09-24T02:16:53.795Z,98088.13
2023-09-24T02:17:56.863Z,98090.78
2023-09-24T02:19:02.033Z,98088.34
2023-09-24T02:20:19.920Z,98082.69
2023-09-24T02:21:23.192Z,98090.91
2023-09-24T02:22:27.125Z,98076.97
2023-09-24T02:23:30.500Z,98081.88
2023-09-24T02:24:36.470Z,98072.34
2023-09-24T02:25:39.646Z,98064.81
2023-09-24T02:26:43.503Z,98065.81
2023-09-24T02:27:46.601Z,98053.44
2023-09-24T02:28:49.876Z,98057.81
2023-09-24T02:29:53.551Z,98060.69
2023-09-24T02:30:57.694Z,98051.88
2023-09-24T02:32:01.110Z,98056.59
2023-09-24T02:33:04.727Z,98052.81
2023-09-24T02:34:07.869Z,98051.97
2023-09-24T02:35:14.984Z,98056.50
2023-09-24T02:36:18.309Z,98051.34
2023-09-24T02:37:24.279Z,98049.91
2023-09-24T02:38:27.355Z,98056.78
2023-09-24T02:39:30.625Z,98054.94
2023-09-24T02:40:33.515Z,98052.69
2023-09-24T02:41:36.800Z,98069.09
2023-09-24T02:42:40.353Z,98058.47
2023-09-24T02:43:43.528Z,98071.25
2023-09-24T02:44:46.818Z,98068.38
2023-09-24T02:45:49.761Z,98067.44
2023-09-24T02:46:53.018Z,98067.03
2023-09-24T02:47:56.745Z,98073.41
2023-09-24T02:48:59.888Z,98077.38
2023-09-24T02:50:03.080Z,98075.41
2023-09-24T02:51:10.278Z,98079.28
2023-09-24T02:52:15.332Z,98081.25
2023-09-24T02:53:18.634Z,98077.03
2023-09-24T02:54:21.835Z,98084.22
2023-09-24T02:55:27.896Z,98091.50
2023-09-24T02:56:31.681Z,98091.94
2023-09-24T02:57:34.940Z,98081.97
2023-09-24T02:58:38.190Z,98077.38
2023-09-24T02:59:41.106Z,98081.97
2023-09-24T03:00:44.561Z,98078.19
2023-09-24T03:01:53.530Z,98087.41
2023-09-24T03:03:01.725Z,98079.94
2023-09-24T03:04:06.377Z,98082.50
2023-09-24T03:05:12.990Z,98072.78
2023-09-24T03:06:18.203Z,98073.09
2023-09-24T03:07:21.302Z,98062.53
2023-09-24T03:08:24.603Z,98059.31
2023-09-24T03:09:27.693Z,98054.91
2023-09-24T03:10:35.476Z,98047.56
2023-09-24T03:11:38.865Z,98047.25
2023-09-24T03:12:42.312Z,98036.41
2023-09-24T03:13:45.849Z,98035.78
2023-09-24T03:14:49.292Z,98034.97
2023-09-24T03:15:52.488Z,98034.13
2023-09-24T03:16:55.595Z,98039.53
2023-09-24T03:18:00.322Z,98032.22
2023-09-24T03:19:06.135Z,98033.41
2023-09-24T03:20:17.284Z,98034.13
2023-09-24T03:21:20.016Z,98031.75
2023-09-24T03:22:23.209Z,98023.34
2023-09-24T03:23:26.318Z,98027.44
2023-09-24T03:24:29.641Z,98027.22
2023-09-24T03:25:33.745Z,98024.97
2023-09-24T03:26:37.102Z,98026.28
2023-09-24T03:27:41.279Z,98026.91
2023-09-24T03:28:44.416Z,98039.50
2023-09-24T03:29:47.742Z,98043.19
2023-09-24T03:30:50.632Z,98029.78
2023-09-24T03:31:54.107Z,98037.34
2023-09-24T03:32:57.741Z,98031.09
2023-09-24T03:34:01.074Z,98040.94
2023-09-24T03:35:06.340Z,98049.25
2023-09-24T03:36:10.291Z,98045.03
2023-09-24T03:37:15.684Z,98048.53
2023-09-24T03:38:19.680Z,98058.84
2023-09-24T03:39:23.061Z,98056.91
2023-09-24T03:40:28.602Z,98063.25
2023-09-24T03:41:32.254Z,98055.53
2023-09-24T03:42:36.573Z,98058.41
2023-09-24T03:43:39.357Z,98058.63
2023-09-24T03:44:42.301Z,98064.03
2023-09-24T03:45:45.316Z,98061.06
2023-09-24T03:46:48.503Z,98067.78
2023-09-24T03:47:53.532Z,98061.44
2023-09-24T03:48:57.314Z,98060.09
2023-09-24T03:50:00.407Z,98055.41
2023-09-24T03:51:03.956Z,98055.53
2023-09-24T03:52:07.234Z,98059.72
2023-09-24T03:53:10.065Z,98059.31
2023-09-24T03:54:13.183Z,98060.47
2023-09-24T03:55:23.239Z,98067.75
2023-09-24T03:56:26.357Z,98060.81
2023-09-24T03:57:30.496Z,98061.19
2023-09-24T03:58:33.575Z,98055.75
2023-09-24T03:59:38.084Z,98063.03
2023-09-24T04:00:41.280Z,98063.44
2023-09-24T04:01:44.155Z,98066.72
2023-09-24T04:02:51.402Z,98062.31
2023-09-24T04:03:55.952Z,98063.44
2023-09-24T04:04:58.994Z,98063.25
2023-09-24T04:06:08.690Z,98059.06
2023-09-24T04:07:11.793Z,98064.28
2023-09-24T04:08:14.966Z,98064.59
2023-09-24T04:09:18.430Z,98058.13
2023-09-24T04:10:23.082Z,98057.91
2023-09-24T04:11:26.407Z,98062.97
2023-09-24T04:12:31.813Z,98059.38
2023-09-24T04:13:35.703Z,98060.94
2023-09-24T04:14:38.761Z,98066.25
2023-09-24T04:15:42.925Z,98065.53
2023-09-24T04:16:47.362Z,98070.84
2023-09-24T04:17:51.431Z,98068.06
2023-09-24T04:18:54.632Z,98076.97
2023-09-24T04:19:58.478Z,98072.87
2023-09-24T04:21:01.694Z,98074.31
2023-09-24T04:22:05.256Z,98079.97
2023-09-24T04:23:09.475Z,98082.00
2023-09-24T04:24:14.587Z,98080.69
2023-09-24T04:25:21.756Z,98079.56
2023-09-24T04:26:26.405Z,98086.66
2023-09-24T04:27:29.740Z,98088.69
2023-09-24T04:28:32.816Z,98091.47
2023-09-24T04:29:35.952Z,98090.13
2023-09-24T04:30:38.809Z,98080.53
2023-09-24T04:31:42.133Z,98085.94
2023-09-24T04:32:55.457Z,98088.81
2023-09-24T04:35:02.081Z,98089.34
2023-09-24T04:36:06.822Z,98087.91
2023-09-24T04:37:11.526Z,98089.34
2023-09-24T04:38:15.390Z,98095.50
2023-09-24T04:39:19.776Z,98098.16
2023-09-24T04:40:25.180Z,98098.03
2023-09-24T04:41:28.379Z,98094.56
2023-09-24T04:42:31.416Z,98095.37
2023-09-24T04:43:37.426Z,98092.50
2023-09-24T04:44:40.528Z,98101.72
2023-09-24T04:45:43.499Z,98100.41
2023-09-24T04:46:46.644Z,98107.47
2023-09-24T04:47:50.633Z,98109.53
2023-09-24T04:48:54.304Z,98107.47
2023-09-24T04:49:57.508Z,98102.66
2023-09-24T04:51:01.000Z,98100.12
2023-09-24T04:52:04.391Z,98107.59
2023-09-24T04:53:08.032Z,98112.28
2023-09-24T04:54:11.146Z,98105.44
2023-09-24T04:55:17.978Z,98105.53
2023-09-24T04:56:21.226Z,98106.47
2023-09-24T04:57:24.132Z,98109.84
2023-09-24T04:58:27.375Z,98102.87
2023-09-24T04:59:30.502Z,98105.25
2023-09-24T05:00:33.747Z,98108.63
2023-09-24T05:01:36.858Z,98106.69
2023-09-24T05:02:39.707Z,98099.72
2023-09-24T05:03:44.378Z,98100.34
2023-09-24T05:04:47.590Z,98107.31
2023-09-24T05:05:50.915Z,98103.44
2023-09-24T05:06:56.029Z,98112.31
2023-09-24T05:07:59.259Z,98101.78
2023-09-24T05:09:02.169Z,98104.22
2023-09-24T05:10:05.858Z,98100.12
2023-09-24T05:11:13.127Z,98097.19
2023-09-24T05:12:16.352Z,98100.66
2023-09-24T05:13:19.568Z,98104.34
2023-09-24T05:14:22.477Z,98105.78
2023-09-24T05:15:25.763Z,98101.69
2023-09-24T05:16:28.733Z,98095.13
2023-09-24T05:17:36.167Z,98103.34
2023-09-24T05:18:39.602Z,98103.53
2023-09-24T05:19:42.443Z,98099.72
2023-09-24T05:20:45.234Z,98101.16
2023-09-24T05:21:48.257Z,98100.44
2023-09-24T05:22:51.506Z,98102.41
2023-09-24T05:23:54.707Z,98105.06
2023-09-24T05:24:57.941Z,98101.56
2023-09-24T05:26:01.147Z,98102.50
2023-09-24T05:27:04.485Z,98103.94
2023-09-24T05:28:08.225Z,98104.66
2023-09-24T05:29:11.454Z,98104.78
2023-09-24T05:30:14.845Z,98108.25
2023-09-24T05:31:18.263Z,98107.12
2023-09-24T05:32:21.558Z,98107.84
2023-09-24T05:33:24.916Z,98107.34
2023-09-24T05:34:28.140Z,98108.88
2023-09-24T05:35:32.917Z,98117.38
2023-09-24T05:36:36.005Z,98125.50
2023-09-24T05:37:40.645Z,98114.22
2023-09-24T05:38:43.443Z,98115.75
2023-09-24T05:39:46.599Z,98123.63
2023-09-24T05:40:49.766Z,98123.00
2023-09-24T05:41:52.956Z,98125.50
2023-09-24T05:42:55.872Z,98125.37
2023-09-24T05:44:04.400Z,98127.34
2023-09-24T05:45:08.656Z,98128.75
2023-09-24T05:46:18.360Z,98129.59
2023-09-24T05:47:21.626Z,98134.09
2023-09-24T05:48:24.793Z,98144.75
2023-09-24T05:49:27.786Z,98144.56
2023-09-24T05:50:30.967Z,98143.63
2023-09-24T05:51:33.764Z,98134.50
2023-09-24T05:52:36.930Z,98137.91
2023-09-24T05:53:39.803Z,98138.09
2023-09-24T05:54:42.988Z,98145.66
2023-09-24T05:55:56.151Z,98154.38
2023-09-24T05:57:00.115Z,98154.69
2023-09-24T05:58:05.390Z,98149.03
2023-09-24T05:59:08.512Z,98148.03
2023-09-24T06:00:12.238Z,98153.03
2023-09-24T06:01:16.618Z,98147.50
2023-09-24T06:02:19.708Z,98161.97
2023-09-24T06:03:22.797Z,98156.44
2023-09-24T06:04:26.156Z,98150.28
2023-09-24T06:05:30.092Z,98153.16
2023-09-24T06:06:33.097Z,98163.81
2023-09-24T06:07:36.226Z,98158.38
2023-09-24T06:08:39.635Z,98164.41
2023-09-24T06:09:43.108Z,98166.69
2023-09-24T06:10:46.833Z,98164.41
2023-09-24T06:11:50.677Z,98163.47
2023-09-24T06:12:54.908Z,98166.34
2023-09-24T06:13:58.269Z,98167.19
2023-09-24T06:15:01.389Z,98172.72
2023-09-24T06:16:05.053Z,98163.91
2023-09-24T06:17:08.371Z,98172.94
2023-09-24T06:18:13.618Z,98169.47
2023-09-24T06:19:16.887Z,98168.53
2023-09-24T06:20:20.055Z,98164.81
2023-09-24T06:21:23.439Z,98171.81
2023-09-24T06:22:28.489Z,98169.06
2023-09-24T06:23:32.428Z,98173.25
2023-09-24T06:24:35.736Z,98168.44
2023-09-24T06:25:39.448Z,98170.69
2023-09-24T06:26:43.782Z,98171.09
2023-09-24T06:27:47.084Z,98172.84
2023-09-24T06:29:00.174Z,98181.56
2023-09-24T06:30:12.085Z,98180.75
2023-09-24T06:31:15.322Z,98184.22
2023-09-24T06:32:18.494Z,98178.28
2023-09-24T06:33:21.922Z,98177.03
2023-09-24T06:34:27.407Z,98176.62
2023-09-24T06:35:30.849Z,98178.59
2023-09-24T06:36:33.674Z,98180.75
2023-09-24T06:37:36.941Z,98179.41
2023-09-24T06:38:40.072Z,98179.72
2023-09-24T06:39:45.792Z,98185.16
2023-09-24T06:41:04.111Z,98186.41
2023-09-24T06:42:08.639Z,98186.28
2023-09-24T06:43:11.820Z,98186.78
2023-09-24T06:44:23.264Z,98190.28
2023-09-24T06:45:26.600Z,98185.38
2023-09-24T06:46:29.511Z,98190.91
2023-09-24T06:47:32.776Z,98195.94
2023-09-24T06:48:35.761Z,98200.72
2023-09-24T06:49:38.876Z,98193.75
2023-09-24T06:50:41.735Z,98203.72
2023-09-24T06:51:44.821Z,98209.37
2023-09-24T06:52:49.635Z,98211.94
2023-09-24T06:53:53.759Z,98204.66
2023-09-24T06:54:56.978Z,98215.03
2023-09-24T06:56:00.275Z,98209.87
2023-09-24T06:57:04.279Z,98216.59
2023-09-24T06:58:08.046Z,98218.00
2023-09-24T06:59:11.425Z,98222.72
2023-09-24T07:00:16.312Z,98215.22
2023-09-24T07:01:19.456Z,98228.16
2023-09-24T07:02:22.366Z,98222.09
2023-09-24T07:03:25.682Z,98220.47
2023-09-24T07:04:29.093Z,98224.87
2023-09-24T07:05:33.158Z,98221.59
2023-09-24T07:06:36.347Z,98222.59
2023-09-24T07:07:39.621Z,98218.72
2023-09-24T07:08:43.218Z,98228.62
2023-09-24T07:09:49.369Z,98225.78
2023-09-24T07:11:21.643Z,98231.09
2023-09-24T07:12:24.737Z,98224.22
2023-09-24T07:13:27.673Z,98230.53
2023-09-24T07:14:30.926Z,98234.00
2023-09-24T07:15:33.837Z,98226.72
2023-09-24T07:16:37.717Z,98234.00
2023-09-24T07:17:40.966Z,98231.84
2023-09-24T07:18:44.400Z,98235.97
2023-09-24T07:19:48.585Z,98231.16
2023-09-24T07:20:51.917Z,98224.34
2023-09-24T07:21:55.026Z,98218.91
2023-09-24T07:22:59.346Z,98226.31
2023-09-24T07:24:03.529Z,98226.81
2023-09-24T07:25:07.444Z,98222.69
2023-09-24T07:26:11.130Z,98228.75
2023-09-24T07:27:14.440Z,98229.03
2023-09-24T07:28:17.391Z,98228.94
2023-09-24T07:29:20.609Z,98233.16
2023-09-24T07:30:23.769Z,98224.84
2023-09-24T07:31:30.448Z,98230.38
2023-09-24T07:32:35.009Z,98233.78
2023-09-24T07:33:37.966Z,98239.81
2023-09-24T07:34:41.733Z,98242.56
2023-09-24T07:35:44.633Z,98240.53
2023-09-24T07:37:02.332Z,98247.50
2023-09-24T07:38:11.235Z,98246.06
2023-09-24T07:39:14.428Z,98245.56
2023-09-24T07:40:18.042Z,98245.03
2023-09-24T07:41:22.713Z,98247.63
2023-09-24T07:42:25.654Z,98252.75
2023-09-24T07:43:29.408Z,98246.38
2023-09-24T07:44:32.723Z,98253.47
2023-09-24T07:45:38.860Z,98250.06
2023-09-24T07:46:42.018Z,98248.94
2023-09-24T07:47:45.141Z,98254.06
2023-09-24T07:48:49.870Z,98251.28
2023-09-24T07:49:53.419Z,98246.19
2023-09-24T07:50:57.314Z,98252.44
2023-09-24T07:52:00.318Z,98251.69
2023-09-24T07:53:04.455Z,98260.09
2023-09-24T07:54:09.126Z,98262.94
2023-09-24T07:55:12.246Z,98259.44
2023-09-24T07:56:15.771Z,98255.75
2023-09-24T07:57:19.667Z,98257.22
2023-09-24T07:58:23.729Z,98259.34
2023-09-24T07:59:27.081Z,98258.25
2023-09-24T08:00:30.216Z,98261.28
2023-09-24T08:01:33.106Z,98268.66
2023-09-24T08:02:36.129Z,98263.84
2023-09-24T08:03:40.674Z,98260.47
2023-09-24T08:04:43.699Z,98265.06
2023-09-24T08:05:47.409Z,98261.97
2023-09-24T08:06:50.577Z,98268.13
2023-09-24T08:07:53.816Z,98271.09
2023-09-24T08:09:13.164Z,98263.41
2023-09-24T08:10:20.918Z,98266.31
2023-09-24T08:11:24.622Z,98263.63
2023-09-24T08:12:28.241Z,98264.78
2023-09-24T08:13:32.373Z,98269.38
2023-09-24T08:14:35.227Z,98263.63
2023-09-24T08:15:38.677Z,98267.00
2023-09-24T08:16:42.639Z,98267.59
2023-09-24T08:17:45.911Z,98276.63
2023-09-24T08:18:51.843Z,98270.37
2023-09-24T08:19:54.862Z,98270.50
2023-09-24T08:20:57.803Z,98273.38
2023-09-24T08:22:01.270Z,98268.78
2023-09-24T08:23:04.970Z,98273.25
2023-09-24T08:24:08.613Z,98268.94
2023-09-24T08:25:14.419Z,98272.94
2023-09-24T08:26:17.485Z,98275.47
2023-09-24T08:27:20.578Z,98274.44
2023-09-24T08:28:23.620Z,98272.00
2023-09-24T08:29:26.748Z,98269.47
2023-09-24T08:30:34.241Z,98266.69
2023-09-24T08:31:37.325Z,98272.22
2023-09-24T08:32:40.706Z,98272.94
2023-09-24T08:33:43.981Z,98268.38
2023-09-24T08:34:47.342Z,98274.06
2023-09-24T08:35:50.385Z,98280.91
2023-09-24T08:36:54.030Z,98286.00
2023-09-24T08:37:57.570Z,98274.81
2023-09-24T08:39:06.289Z,98272.38
2023-09-24T08:40:11.235Z,98279.59
2023-09-24T08:41:14.790Z,98272.31
2023-09-24T08:42:20.989Z,98272.81
2023-09-24T08:43:29.225Z,98262.38
2023-09-24T08:44:34.168Z,98269.72
2023-09-24T08:45:37.544Z,98263.56
2023-09-24T08:46:42.497Z,98272.09
2023-09-24T08:47:49.353Z,98275.47
2023-09-24T08:48:54.390Z,98275.72
2023-09-24T08:49:58.520Z,98272.31
2023-09-24T08:51:04.603Z,98265.84
2023-09-24T08:52:09.462Z,98274.06
2023-09-24T08:53:14.442Z,98275.47
2023-09-24T08:54:17.681Z,98274.62
2023-09-24T08:55:20.641Z,98272.25
2023-09-24T08:56:24.668Z,98279.34
2023-09-24T08:57:27.754Z,98279.03
2023-09-24T08:58:30.784Z,98287.31
2023-09-24T08:59:33.951Z,98277.41
2023-09-24T09:00:37.842Z,98286.09
2023-09-24T09:01:40.794Z,98280.78
2023-09-24T09:02:47.048Z,98278.63
2023-09-24T09:03:50.372Z,98275.78
2023-09-24T09:04:54.149Z,98281.91
2023-09-24T09:05:59.894Z,98266.00
2023-09-24T09:07:13.779Z,98277.78
2023-09-24T09:08:16.748Z,98295.25
2023-09-24T09:09:29.125Z,98281.50
2023-09-24T09:10:38.492Z,98289.22
2023-09-24T09:11:44.360Z,98286.44
2023-09-24T09:12:47.512Z,98290.53
2023-09-24T09:13:51.357Z,98286.44
2023-09-24T09:14:54.430Z,98295.25
2023-09-24T09:16:04.950Z,98274.31
2023-09-24T09:17:07.972Z,98285.19
2023-09-24T09:18:25.667Z,98287.31
2023-09-24T09:19:31.341Z,98289.59
2023-09-24T09:20:47.892Z,98279.34
2023-09-24T09:21:51.649Z,98288.47
2023-09-24T09:22:55.328Z,98289.81
2023-09-24T09:23:58.359Z,98280.31
2023-09-24T09:25:10.037Z,98289.31
2023-09-24T09:26:13.022Z,98284.81
2023-09-24T09:27:15.872Z,98286.72
2023-09-24T09:28:27.870Z,98293.78
2023-09-24T09:29:31.465Z,98294.63
2023-09-24T09:30:34.988Z,98284.88
2023-09-24T09:31:50.398Z,98293.19
2023-09-24T09:32:53.449Z,98290.41
2023-09-24T09:33:56.419Z,98288.75
2023-09-24T09:34:59.996Z,98288.38
2023-09-24T09:36:04.677Z,98291.13
2023-09-24T09:37:18.212Z,98294.72
2023-09-24T09:38:21.823Z,98291.00
2023-09-24T09:39:24.794Z,98299.94
2023-09-24T09:40:27.951Z,98299.44
2023-09-24T09:41:34.922Z,98305.78
2023-09-24T09:42:39.397Z,98296.16
2023-09-24T09:43:44.133Z,98305.38
2023-09-24T09:44:49.943Z,98305.47
2023-09-24T09:45:55.668Z,98307.13
2023-09-24T09:47:01.711Z,98308.84
2023-09-24T09:48:11.935Z,98304.75
2023-09-24T09:49:21.252Z,98304.03
2023-09-24T09:50:27.433Z,98305.47
2023-09-24T09:51:38.750Z,98302.06
2023-09-24T09:52:45.366Z,98301.34
2023-09-24T09:53:48.907Z,98311.00
2023-09-24T09:54:56.145Z,98301.25
2023-09-24T09:56:11.508Z,98296.22
2023-09-24T09:57:14.958Z,98314.06
2023-09-24T09:58:23.758Z,98298.28
2023-09-24T09:59:29.246Z,98305.12
2023-09-24T10:00:32.680Z,98307.44
2023-09-24T10:01:36.327Z,98309.72
2023-09-24T10:02:43.325Z,98312.00
2023-09-24T10:03:47.711Z,98317.41
2023-09-24T10:04:52.164Z,98314.53
2023-09-24T10:05:57.824Z,98316.31
2023-09-24T10:07:01.081Z,98316.31
2023-09-24T10:08:42.958Z,98322.69
2023-09-24T10:09:47.536Z,98330.38
2023-09-24T10:10:50.439Z,98324.59
2023-09-24T10:11:56.878Z,98325.31
2023-09-24T10:13:00.911Z,98323.31
2023-09-24T10:14:07.184Z,98331.25
2023-09-24T10:15:30.112Z,98327.03
2023-09-24T10:16:41.074Z,98329.59
2023-09-24T10:17:46.727Z,98335.47
2023-09-24T10:19:01.243Z,98331.97
2023-09-24T10:20:09.763Z,98333.91
2023-09-24T10:21:13.161Z,98332.56
2023-09-24T10:22:30.996Z,98333.44
2023-09-24T10:23:37.495Z,98332.31
2023-09-24T10:24:40.764Z,98336.00
2023-09-24T10:25:47.649Z,98340.56
2023-09-24T10:27:05.374Z,98326.81
2023-09-24T10:28:11.509Z,98344.38
2023-09-24T10:29:16.353Z,98325.00
2023-09-24T10:30:19.569Z,98332.81
2023-09-24T10:31:23.152Z,98326.13
2023-09-24T10:32:27.194Z,98327.91
2023-09-24T10:33:59.870Z,98329.34
2023-09-24T10:35:03.207Z,98336.53
2023-09-24T10:36:24.420Z,98325.91
2023-09-24T10:37:35.574Z,98346.75
2023-09-24T10:39:15.288Z,98345.59
2023-09-24T10:40:19.007Z,98343.22
2023-09-24T10:41:22.179Z,98338.31
2023-09-24T10:42:26.252Z,98340.25
2023-09-24T10:43:29.184Z,98342.16
2023-09-24T10:44:34.897Z,98338.19
2023-09-24T10:45:38.597Z,98340.63
2023-09-24T10:46:41.783Z,98342.06
2023-09-24T10:47:46.274Z,98342.28
2023-09-24T10:48:52.411Z,98339.16
2023-09-24T10:50:06.233Z,98343.97
2023-09-24T10:51:09.328Z,98347.94
2023-09-24T10:52:12.326Z,98341.09
2023-09-24T10:53:19.069Z,98342.72
2023-09-24T10:54:22.485Z,98329.38
2023-09-24T10:55:31.308Z,98346.50
2023-09-24T10:56:34.757Z,98334.91
2023-09-24T10:57:38.560Z,98349.00
2023-09-24T10:58:49.926Z,98353.91
2023-09-24T10:59:52.903Z,98354.03
2023-09-24T11:00:56.446Z,98345.81
2023-09-24T11:01:59.808Z,98340.81
2023-09-24T11:03:06.376Z,98338.53
2023-09-24T11:04:10.920Z,98338.44
2023-09-24T11:05:14.332Z,98332.91
2023-09-24T11:06:17.380Z,98342.94
2023-09-24T11:07:20.796Z,98345.72
2023-09-24T11:08:29.804Z,98338.63
2023-09-24T11:09:33.085Z,98343.16
2023-09-24T11:10:36.585Z,98343.56
2023-09-24T11:11:40.335Z,98336.06
2023-09-24T11:12:50.190Z,98346.03
2023-09-24T11:13:53.140Z,98339.34
2023-09-24T11:15:14.443Z,98342.00
2023-09-24T11:16:20.952Z,98352.47
2023-09-24T11:17:25.400Z,98343.34
2023-09-24T11:18:30.595Z,98353.59
2023-09-24T11:19:43.768Z,98345.41
2023-09-24T11:20:53.853Z,98347.34
2023-09-24T11:21:57.008Z,98350.81
2023-09-24T11:23:03.359Z,98356.59
2023-09-24T11:24:23.640Z,98351.12
2023-09-24T11:25:27.677Z,98361.50
2023-09-24T11:26:31.073Z,98360.78
2023-09-24T11:27:57.493Z,98352.47
2023-09-24T11:29:00.670Z,98363.22
2023-09-24T11:30:05.608Z,98352.59
2023-09-24T11:31:08.919Z,98363.69
2023-09-24T11:32:26.481Z,98359.28
2023-09-24T11:33:30.277Z,98354.44
2023-09-24T11:34:34.137Z,98359.28
2023-09-24T11:35:39.217Z,98359.88
2023-09-24T11:36:54.288Z,98357.63
2023-09-24T11:38:00.377Z,98359.88
2023-09-24T11:39:04.673Z,98352.38
2023-09-24T11:40:20.616Z,98350.16
2023-09-24T11:41:23.636Z,98355.47
2023-09-24T11:42:27.183Z,98357.03
2023-09-24T11:43:30.122Z,98361.81
2023-09-24T11:44:47.329Z,98354.97
2023-09-24T11:45:57.195Z,98361.09
2023-09-24T11:47:00.689Z,98361.00
2023-09-24T11:48:07.106Z,98360.50
2023-09-24T11:49:11.548Z,98359.38
2023-09-24T11:50:15.038Z,98358.88
2023-09-24T11:51:19.201Z,98355.69
2023-09-24T11:52:25.352Z,98368.53
2023-09-24T11:53:28.808Z,98356.94
2023-09-24T11:54:32.594Z,98363.91
2023-09-24T11:55:36.731Z,98374.72
2023-09-24T11:56:39.963Z,98365.28
2023-09-24T11:57:43.357Z,98364.66
2023-09-24T11:58:46.561Z,98362.09
2023-09-24T11:59:50.115Z,98356.13
2023-09-24T12:00:54.964Z,98359.94
2023-09-24T12:01:57.976Z,98351.28
2023-09-24T12:03:02.174Z,98348.22
2023-09-24T12:04:05.927Z,98351.75
2023-09-24T12:05:19.416Z,98353.22
2023-09-24T12:06:30.546Z,98355.34
2023-09-24T12:07:35.555Z,98363.06
2023-09-24T12:08:39.416Z,98367.50
2023-09-24T12:09:42.772Z,98368.31
2023-09-24T12:10:52.257Z,98363.47
2023-09-24T12:11:55.673Z,98372.41
2023-09-24T12:13:06.006Z,98379.53
2023-09-24T12:14:08.996Z,98384.25
2023-09-24T12:15:14.876Z,98400.56
2023-09-24T12:16:18.860Z,98396.38
2023-09-24T12:17:22.025Z,98396.78
2023-09-24T12:18:25.748Z,98401.72
2023-09-24T12:19:29.533Z,98406.94
2023-09-24T12:20:34.292Z,98412.81
2023-09-24T12:21:37.670Z,98407.97
2023-09-24T12:22:44.411Z,98414.03
2023-09-24T12:23:47.823Z,98415.66
2023-09-24T12:24:51.088Z,98415.56
2023-09-24T12:25:54.505Z,98409.72
2023-09-24T12:26:57.752Z,98414.75
2023-09-24T12:28:01.113Z,98421.72
2023-09-24T12:29:04.542Z,98407.44
2023-09-24T12:30:12.063Z,98415.16
2023-09-24T12:31:15.612Z,98412.88
2023-09-24T12:32:19.278Z,98399.56
2023-09-24T12:33:23.256Z,98402.03
2023-09-24T12:34:26.340Z,98398.22
2023-09-24T12:35:29.982Z,98397.50
2023-09-24T12:36:33.943Z,98393.00
2023-09-24T12:37:38.176Z,98395.63
2023-09-24T12:38:41.366Z,98390.69
2023-09-24T12:39:45.217Z,98390.81
2023-09-24T12:40:50.519Z,98394.06
2023-09-24T12:41:54.228Z,98391.72
2023-09-24T12:42:57.409Z,98393.53
2023-09-24T12:44:00.918Z,98401.84